createdAt,value
2022-08-07T00:00:52.481Z,15.58
2022-08-07T00:03:20.389Z,15.44
2022-08-07T00:05:54.119Z,15.34
2022-08-07T00:08:23.472Z,15.30
2022-08-07T00:10:57.515Z,14.96
2022-08-07T00:13:26.829Z,15.10
2022-08-07T00:15:55.632Z,14.98
2022-08-07T00:18:25.608Z,14.88
2022-08-07T00:20:54.935Z,14.74
2022-08-07T00:23:25.250Z,14.52
2022-08-07T00:26:00.409Z,14.46
2022-08-07T00:28:33.405Z,14.18
2022-08-07T00:31:05.949Z,14.29
2022-08-07T00:33:35.027Z,14.44
2022-08-07T00:36:03.663Z,14.53
2022-08-07T00:38:33.316Z,14.60
2022-08-07T00:41:02.898Z,14.62
2022-08-07T00:43:59.702Z,14.59
2022-08-07T00:46:18.833Z,14.44
2022-08-07T00:48:49.743Z,14.22
2022-08-07T00:51:18.203Z,14.52
2022-08-07T00:53:50.697Z,14.65
2022-08-07T00:56:30.030Z,14.68
2022-08-07T00:58:58.925Z,14.37
2022-08-07T01:01:27.130Z,14.46
2022-08-07T01:04:00.200Z,14.55
2022-08-07T01:06:29.274Z,14.56
2022-08-07T01:09:00.655Z,14.48
2022-08-07T01:12:23.671Z,14.43
2022-08-07T01:14:21.357Z,14.50
2022-08-07T01:16:57.768Z,14.47
2022-08-07T01:19:27.686Z,14.33
2022-08-07T01:22:03.069Z,14.24
2022-08-07T01:24:32.862Z,14.14
2022-08-07T01:27:01.355Z,14.24
2022-08-07T01:29:33.820Z,13.95
2022-08-07T01:32:05.280Z,13.91
2022-08-07T01:34:34.302Z,14.02
2022-08-07T01:37:03.923Z,13.89
2022-08-07T01:39:40.553Z,13.74
2022-08-07T01:42:38.653Z,13.89
2022-08-07T01:45:04.163Z,13.88
2022-08-07T01:48:19.394Z,13.53
2022-08-07T01:50:22.800Z,13.56
2022-08-07T01:53:00.151Z,13.72
2022-08-07T01:55:30.642Z,13.56
2022-08-07T01:58:06.647Z,13.13
2022-08-07T02:01:09.444Z,13.02
2022-08-07T02:03:50.296Z,12.98
2022-08-07T02:06:31.824Z,12.79
2022-08-07T02:09:05.266Z,12.90
2022-08-07T02:12:02.820Z,12.70
2022-08-07T02:14:36.620Z,12.84
2022-08-07T02:17:10.905Z,12.78
2022-08-07T02:20:05.035Z,12.78
2022-08-07T02:22:31.171Z,12.78
2022-08-07T02:25:01.718Z,12.86
2022-08-07T02:27:36.980Z,13.08
2022-08-07T02:30:10.711Z,13.10
2022-08-07T02:33:03.648Z,13.09
2022-08-07T02:36:29.913Z,13.17
2022-08-07T02:38:28.214Z,12.81
2022-08-07T02:41:03.884Z,12.56
2022-08-07T02:43:33.784Z,12.53
2022-08-07T02:46:05.569Z,12.45
2022-08-07T02:48:34.477Z,12.47
2022-08-07T02:51:28.950Z,12.59
2022-08-07T02:53:58.162Z,12.63
2022-08-07T02:56:33.004Z,12.49
2022-08-07T02:59:05.104Z,12.42
2022-08-07T03:01:35.308Z,12.48
2022-08-07T03:04:06.980Z,12.51
2022-08-07T03:06:37.154Z,12.60
2022-08-07T03:09:11.192Z,12.47
2022-08-07T03:11:52.589Z,12.69
2022-08-07T03:14:26.052Z,12.86
2022-08-07T03:16:56.698Z,12.79
2022-08-07T03:19:28.947Z,12.74
2022-08-07T03:22:06.843Z,12.56
2022-08-07T03:24:36.638Z,12.49
2022-08-07T03:27:09.217Z,12.50
2022-08-07T03:29:46.286Z,12.57
2022-08-07T03:32:23.609Z,12.67
2022-08-07T03:35:16.738Z,12.54
2022-08-07T03:37:53.108Z,12.37
2022-08-07T03:40:23.774Z,12.44
2022-08-07T03:43:01.107Z,12.43
2022-08-07T03:45:31.568Z,12.71
2022-08-07T03:47:59.911Z,12.59
2022-08-07T03:50:29.142Z,12.64
2022-08-07T03:52:58.532Z,12.59
2022-08-07T03:55:52.796Z,12.59
2022-08-07T03:59:05.349Z,12.73
2022-08-07T04:01:07.570Z,12.70
2022-08-07T04:03:53.379Z,12.74
2022-08-07T04:06:37.594Z,12.86
2022-08-07T04:09:06.455Z,12.82
2022-08-07T04:12:26.288Z,13.36
2022-08-07T04:14:39.055Z,13.74
2022-08-07T04:17:20.098Z,13.54
2022-08-07T04:19:52.920Z,13.41
2022-08-07T04:22:29.207Z,13.80
2022-08-07T04:24:58.526Z,14.01
2022-08-07T04:27:26.903Z,14.55
2022-08-07T04:30:01.418Z,14.14
2022-08-07T04:32:34.260Z,14.76
2022-08-07T04:35:03.949Z,14.83
2022-08-07T04:38:00.809Z,14.86
2022-08-07T04:40:29.785Z,14.65
2022-08-07T04:43:02.198Z,14.92
2022-08-07T04:46:00.881Z,15.41
2022-08-07T04:48:40.768Z,15.35
2022-08-07T04:51:27.072Z,15.07
2022-08-07T04:54:06.734Z,15.05
2022-08-07T04:58:09.708Z,15.25
2022-08-07T05:00:09.792Z,15.44
2022-08-07T05:02:31.784Z,15.42
2022-08-07T05:05:11.901Z,15.61
2022-08-07T05:07:59.425Z,15.65
2022-08-07T05:10:31.996Z,15.45
2022-08-07T05:13:10.104Z,15.12
2022-08-07T05:15:58.486Z,14.86
2022-08-07T05:18:30.863Z,14.82
2022-08-07T05:21:03.822Z,15.13
2022-08-07T05:23:37.322Z,15.63
2022-08-07T05:26:15.708Z,15.77
2022-08-07T05:28:48.653Z,15.62
2022-08-07T05:31:21.379Z,15.41
2022-08-07T05:34:04.500Z,15.49
2022-08-07T05:36:35.597Z,15.55
2022-08-07T05:40:05.659Z,15.48
2022-08-07T05:42:01.751Z,15.88
2022-08-07T05:44:36.510Z,16.47
2022-08-07T05:47:18.207Z,16.65
2022-08-07T05:49:49.854Z,16.48
2022-08-07T05:52:20.316Z,16.50
2022-08-07T05:54:55.914Z,16.16
2022-08-07T05:57:30.136Z,16.60
2022-08-07T06:00:03.370Z,16.81
2022-08-07T06:02:35.914Z,17.02
2022-08-07T06:05:10.767Z,16.97
2022-08-07T06:08:14.134Z,17.29
2022-08-07T06:10:33.145Z,17.67
2022-08-07T06:13:02.206Z,17.53
2022-08-07T06:15:42.091Z,17.81
2022-08-07T06:18:13.847Z,17.79
2022-08-07T06:20:50.955Z,17.78
2022-08-07T06:24:37.229Z,17.99
2022-08-07T06:26:21.652Z,18.32
2022-08-07T06:28:57.129Z,18.33
2022-08-07T06:31:47.043Z,18.55
2022-08-07T06:34:15.726Z,18.54
2022-08-07T06:36:52.210Z,18.61
2022-08-07T06:40:16.738Z,18.72
2022-08-07T06:42:12.778Z,18.77
2022-08-07T06:44:41.901Z,18.81
2022-08-07T06:47:15.397Z,18.67
2022-08-07T06:49:51.242Z,19.11
2022-08-07T06:52:31.442Z,19.01
2022-08-07T06:55:33.047Z,19.06
2022-08-07T06:58:00.402Z,19.24
2022-08-07T07:00:32.020Z,19.24
2022-08-07T07:03:08.765Z,19.32
2022-08-07T07:06:03.765Z,19.15
2022-08-07T07:08:32.975Z,19.50
2022-08-07T07:11:13.157Z,19.88
2022-08-07T07:14:01.276Z,19.81
2022-08-07T07:16:44.243Z,20.01
2022-08-07T07:19:56.198Z,20.19
2022-08-07T07:22:36.236Z,20.34
2022-08-07T07:26:31.041Z,20.49
2022-08-07T07:27:58.532Z,20.63
2022-08-07T07:30:40.872Z,20.54
2022-08-07T07:33:12.264Z,20.57
2022-08-07T07:36:04.722Z,20.51
2022-08-07T07:38:34.932Z,20.50
2022-08-07T07:41:09.204Z,20.81
2022-08-07T07:43:47.882Z,20.89
2022-08-07T07:46:38.504Z,20.60
2022-08-07T07:50:34.582Z,20.65
2022-08-07T07:52:10.788Z,20.74
2022-08-07T07:54:40.102Z,20.78
2022-08-07T07:57:43.893Z,20.99
2022-08-07T08:00:15.015Z,20.87
2022-08-07T08:03:05.303Z,20.91
2022-08-07T08:05:50.603Z,21.04
2022-08-07T08:08:35.112Z,20.88
2022-08-07T08:11:08.478Z,20.71
2022-08-07T08:13:54.592Z,21.14
2022-08-07T08:18:36.432Z,21.08
2022-08-07T08:20:15.948Z,20.98
2022-08-07T08:22:32.569Z,21.12
2022-08-07T08:25:24.943Z,21.22
2022-08-07T08:28:16.939Z,21.28
2022-08-07T08:30:58.559Z,20.94
2022-08-07T08:33:33.097Z,21.07
2022-08-07T08:36:02.769Z,21.41
2022-08-07T08:38:40.509Z,21.14
2022-08-07T08:41:15.696Z,21.26
2022-08-07T08:43:56.269Z,20.87
2022-08-07T08:46:38.390Z,21.00
2022-08-07T08:49:14.171Z,21.23
2022-08-07T08:52:14.382Z,21.31
2022-08-07T08:54:48.158Z,21.33
2022-08-07T08:57:23.464Z,21.50
2022-08-07T09:00:00.415Z,21.59
2022-08-07T09:02:38.042Z,21.35
2022-08-07T09:05:32.326Z,21.20
2022-08-07T09:08:24.423Z,20.89
2022-08-07T09:11:08.305Z,20.55
2022-08-07T09:13:42.788Z,20.61
2022-08-07T09:16:23.872Z,21.15
2022-08-07T09:19:53.180Z,21.47
2022-08-07T09:24:27.238Z,21.73
2022-08-07T09:25:17.614Z,21.80
2022-08-07T09:28:00.979Z,21.82
2022-08-07T09:30:44.163Z,22.06
2022-08-07T09:33:53.187Z,22.01
2022-08-07T09:36:27.034Z,21.60
2022-08-07T09:39:53.169Z,21.60
2022-08-07T09:42:16.942Z,21.25
2022-08-07T09:47:52.478Z,21.04
2022-08-07T09:48:04.107Z,20.98
2022-08-07T09:50:51.366Z,21.06
2022-08-07T09:53:24.371Z,21.13
2022-08-07T09:56:15.104Z,21.24
2022-08-07T09:59:07.604Z,22.01
2022-08-07T10:01:59.206Z,22.27
2022-08-07T10:04:47.569Z,21.73
2022-08-07T10:07:52.558Z,22.30
2022-08-07T10:11:07.826Z,22.70
2022-08-07T10:14:00.715Z,22.63
2022-08-07T10:19:38.459Z,22.31
2022-08-07T10:22:33.615Z,22.71
2022-08-07T10:25:22.774Z,22.33
2022-08-07T10:28:13.114Z,22.31
2022-08-07T10:30:54.458Z,22.26
2022-08-07T10:34:05.769Z,22.85
2022-08-07T10:36:39.800Z,22.81
2022-08-07T10:39:41.507Z,22.55
2022-08-07T10:42:31.227Z,22.67
2022-08-07T10:45:16.696Z,23.33
2022-08-07T10:48:03.373Z,23.54
2022-08-07T10:50:36.449Z,23.02
2022-08-07T10:53:11.018Z,23.35
2022-08-07T10:55:54.834Z,23.96
2022-08-07T10:58:40.360Z,24.16
2022-08-07T11:01:35.335Z,24.06
2022-08-07T11:04:37.491Z,23.84
2022-08-07T11:07:56.869Z,23.66
2022-08-07T11:10:15.311Z,23.92
2022-08-07T11:12:49.718Z,24.11
2022-08-07T11:15:38.141Z,23.32
2022-08-07T11:18:19.529Z,23.34
2022-08-07T11:20:57.528Z,22.82
2022-08-07T11:23:38.352Z,22.75
2022-08-07T11:26:13.135Z,22.99
2022-08-07T11:28:55.356Z,23.18
2022-08-07T11:31:33.253Z,23.90
2022-08-07T11:34:17.089Z,23.45
2022-08-07T11:37:00.857Z,23.87
2022-08-07T11:39:59.928Z,23.68
2022-08-07T11:42:42.019Z,23.50
2022-08-07T11:45:20.579Z,24.08
2022-08-07T11:48:18.309Z,24.44
2022-08-07T11:51:10.701Z,24.58
2022-08-07T11:54:10.588Z,25.24
2022-08-07T11:56:56.233Z,25.00
2022-08-07T12:00:11.440Z,23.60
2022-08-07T12:02:43.865Z,23.31
2022-08-07T12:05:41.409Z,23.17
2022-08-07T12:08:25.638Z,23.03
2022-08-07T12:11:19.999Z,23.06
2022-08-07T12:13:56.514Z,22.83
2022-08-07T12:16:30.634Z,22.71
2022-08-07T12:19:06.306Z,23.58
2022-08-07T12:22:35.684Z,23.50
2022-08-07T12:25:07.671Z,24.16
2022-08-07T12:28:09.890Z,24.82
2022-08-07T12:30:34.239Z,24.48
2022-08-07T12:33:18.556Z,24.22
2022-08-07T12:35:48.275Z,23.76
2022-08-07T12:38:29.366Z,24.08
2022-08-07T12:41:11.062Z,24.15
2022-08-07T12:44:02.861Z,24.33
2022-08-07T12:46:46.095Z,24.14
2022-08-07T12:49:44.210Z,23.95
2022-08-07T12:52:28.828Z,24.09
2022-08-07T12:55:09.735Z,24.23
2022-08-07T12:58:01.367Z,24.88
2022-08-07T13:00:49.491Z,23.91
2022-08-07T13:03:56.065Z,23.43
2022-08-07T13:07:00.228Z,23.62
2022-08-07T13:10:21.891Z,24.54
2022-08-07T13:12:45.014Z,24.30
2022-08-07T13:15:31.737Z,24.18
2022-08-07T13:18:25.848Z,24.43
2022-08-07T13:21:03.618Z,23.89
2022-08-07T13:24:02.012Z,23.79
2022-08-07T13:26:36.582Z,24.22
2022-08-07T13:29:13.675Z,24.05
2022-08-07T13:31:57.631Z,24.48
2022-08-07T13:34:36.562Z,24.31
2022-08-07T13:37:10.776Z,24.94
2022-08-07T13:40:42.160Z,24.66
2022-08-07T13:42:59.202Z,24.91
2022-08-07T13:46:11.069Z,24.60
2022-08-07T13:48:33.758Z,24.54
2022-08-07T13:51:28.436Z,24.92
2022-08-07T13:53:59.732Z,24.24
2022-08-07T13:56:35.533Z,24.41
2022-08-07T13:59:12.673Z,24.51
2022-08-07T14:01:50.996Z,24.62
2022-08-07T14:04:29.799Z,25.21
2022-08-07T14:07:09.745Z,24.98
2022-08-07T14:10:02.249Z,25.21
2022-08-07T14:12:41.518Z,24.91
2022-08-07T14:15:23.767Z,24.86
2022-08-07T14:18:23.706Z,24.64
2022-08-07T14:20:54.592Z,24.55
2022-08-07T14:23:31.720Z,24.96
2022-08-07T14:26:28.063Z,25.01
2022-08-07T14:29:04.400Z,24.80
2022-08-07T14:31:42.256Z,24.57
2022-08-07T14:40:17.892Z,25.19
2022-08-07T14:43:00.685Z,25.22
2022-08-07T14:45:46.704Z,25.82
2022-08-07T14:48:20.059Z,25.88
2022-08-07T14:50:51.120Z,26.42
2022-08-07T14:54:05.580Z,26.52
2022-08-07T14:56:13.914Z,26.75
2022-08-07T14:58:54.125Z,27.00
2022-08-07T15:01:42.689Z,27.04
2022-08-07T15:04:18.275Z,27.15
2022-08-07T15:06:49.599Z,27.22
2022-08-07T15:12:26.106Z,26.82
2022-08-07T15:15:07.667Z,27.30
2022-08-07T15:17:55.560Z,27.55
2022-08-07T15:20:34.163Z,27.08
2022-08-07T15:23:20.247Z,27.31
2022-08-07T15:25:55.881Z,27.88
2022-08-07T15:28:35.103Z,28.38
2022-08-07T15:31:12.274Z,28.17
2022-08-07T15:34:02.479Z,28.04
2022-08-07T15:37:03.110Z,28.41
2022-08-07T15:39:25.893Z,27.93
2022-08-07T15:42:43.485Z,28.24
2022-08-07T15:44:51.919Z,28.50
2022-08-07T15:50:38.016Z,27.61
2022-08-07T15:53:09.085Z,28.32
2022-08-07T15:56:02.430Z,27.92
2022-08-07T15:58:38.552Z,28.18
2022-08-07T16:01:13.474Z,28.60
2022-08-07T16:03:57.290Z,28.28
2022-08-07T16:06:31.104Z,28.44
2022-08-07T16:09:03.326Z,27.95
2022-08-07T16:11:55.677Z,28.09
2022-08-07T16:14:43.349Z,28.04
2022-08-07T16:18:01.763Z,29.24
2022-08-07T16:20:38.099Z,28.17
2022-08-07T16:23:25.204Z,28.19
2022-08-07T16:26:30.964Z,28.59
2022-08-07T16:30:11.802Z,28.62
2022-08-07T16:32:34.893Z,29.13
2022-08-07T16:35:51.487Z,28.52
2022-08-07T16:39:00.135Z,28.41
2022-08-07T16:41:41.740Z,27.74
2022-08-07T16:45:13.972Z,27.98
2022-08-07T16:47:56.613Z,28.25
2022-08-07T16:51:13.494Z,27.61
2022-08-07T16:54:08.794Z,28.04
2022-08-07T16:56:53.598Z,28.48
2022-08-07T16:59:46.270Z,28.14
2022-08-07T17:02:52.366Z,28.52
2022-08-07T17:06:19.876Z,26.42
2022-08-07T17:09:08.808Z,27.57
2022-08-07T17:12:01.450Z,27.27
2022-08-07T17:14:44.681Z,26.68
2022-08-07T17:17:46.751Z,27.04
2022-08-07T17:20:20.953Z,26.50
2022-08-07T17:23:00.937Z,25.59
2022-08-07T17:25:47.458Z,25.10
2022-08-07T17:28:31.249Z,24.71
2022-08-07T17:31:16.418Z,24.43
2022-08-07T17:34:18.081Z,23.94
2022-08-07T17:36:57.485Z,23.91
2022-08-07T17:39:53.080Z,23.60
2022-08-07T17:42:58.200Z,23.56
2022-08-07T17:45:32.104Z,23.22
2022-08-07T17:48:10.333Z,23.19
2022-08-07T17:51:00.101Z,23.11
2022-08-07T17:54:01.419Z,23.07
2022-08-07T17:56:29.967Z,23.01
2022-08-07T17:59:10.183Z,22.92
2022-08-07T18:01:51.487Z,22.81
2022-08-07T18:04:35.850Z,22.71
2022-08-07T18:07:20.924Z,22.60
2022-08-07T18:10:07.120Z,22.48
2022-08-07T18:13:09.807Z,22.39
2022-08-07T18:15:53.501Z,22.32
2022-08-07T18:18:46.613Z,22.21
2022-08-07T18:21:40.156Z,22.14
2022-08-07T18:24:12.112Z,22.01
2022-08-07T18:27:18.028Z,21.94
2022-08-07T18:30:04.672Z,21.81
2022-08-07T18:33:11.035Z,21.72
2022-08-07T18:35:58.085Z,21.66
2022-08-07T18:38:58.723Z,21.52
2022-08-07T18:41:44.946Z,21.48
2022-08-07T18:44:32.724Z,21.43
2022-08-07T18:47:24.988Z,21.31
2022-08-07T18:50:39.110Z,21.26
2022-08-07T18:53:39.177Z,21.15
2022-08-07T18:56:15.058Z,21.11
2022-08-07T18:58:58.096Z,21.06
2022-08-07T19:02:32.623Z,20.95
2022-08-07T19:04:54.747Z,20.83
2022-08-07T19:07:34.403Z,20.71
2022-08-07T19:10:14.845Z,20.64
2022-08-07T19:12:59.180Z,20.59
2022-08-07T19:16:04.353Z,20.56
2022-08-07T19:18:34.956Z,20.49
2022-08-07T19:21:43.823Z,20.43
2022-08-07T19:24:10.525Z,20.35
2022-08-07T19:27:08.857Z,20.34
2022-08-07T19:31:06.121Z,20.16
2022-08-07T19:32:43.789Z,20.09
2022-08-07T19:35:18.240Z,20.07
2022-08-07T19:37:55.202Z,20.00
2022-08-07T19:40:31.267Z,19.94
2022-08-07T19:43:10.588Z,19.91
2022-08-07T19:46:07.559Z,19.89
2022-08-07T19:48:42.959Z,19.89
2022-08-07T19:51:19.377Z,19.84
2022-08-07T19:54:35.000Z,19.90
2022-08-07T19:57:51.517Z,19.83
2022-08-07T19:59:41.014Z,19.82
2022-08-07T20:02:19.612Z,19.85
2022-08-07T20:04:52.761Z,19.78
2022-08-07T20:07:45.804Z,19.70
2022-08-07T20:10:35.817Z,19.70
2022-08-07T20:13:23.301Z,19.68
2022-08-07T20:15:53.988Z,19.65
2022-08-07T20:18:31.960Z,19.48
2022-08-07T20:21:03.049Z,19.39
2022-08-07T20:23:42.180Z,19.34
2022-08-07T20:26:29.679Z,19.41
2022-08-07T20:29:16.955Z,19.33
2022-08-07T20:32:01.195Z,19.26
2022-08-07T20:34:49.674Z,19.25
2022-08-07T20:37:24.262Z,19.15
2022-08-07T20:40:02.774Z,19.13
2022-08-07T20:42:47.345Z,19.08
2022-08-07T20:45:33.640Z,18.98
2022-08-07T20:48:28.485Z,19.00
2022-08-07T20:51:09.834Z,18.82
2022-08-07T20:54:03.637Z,18.71
2022-08-07T20:56:46.133Z,18.70
2022-08-07T21:00:04.162Z,18.69
2022-08-07T21:02:54.538Z,18.59
2022-08-07T21:05:50.584Z,18.51
2022-08-07T21:08:38.131Z,18.48
2022-08-07T21:11:15.025Z,18.60
2022-08-07T21:14:29.375Z,18.57
2022-08-07T21:17:06.638Z,18.53
2022-08-07T21:19:51.601Z,18.53
2022-08-07T21:22:38.504Z,18.52
2022-08-07T21:25:14.510Z,18.38
2022-08-07T21:28:01.756Z,18.37
2022-08-07T21:30:38.692Z,18.26
2022-08-07T21:33:17.671Z,18.14
2022-08-07T21:36:05.809Z,18.12
2022-08-07T21:38:54.447Z,17.93
2022-08-07T21:41:37.680Z,17.89
2022-08-07T21:44:28.645Z,17.86
2022-08-07T21:47:05.386Z,17.91
2022-08-07T21:50:00.868Z,17.80
2022-08-07T21:52:44.769Z,17.78
2022-08-07T21:55:27.996Z,17.75
2022-08-07T21:58:06.709Z,17.70
2022-08-07T22:00:35.020Z,17.71
2022-08-07T22:03:16.491Z,17.62
2022-08-07T22:05:53.726Z,17.56
2022-08-07T22:08:24.740Z,17.51
2022-08-07T22:10:59.023Z,17.44
2022-08-07T22:13:50.462Z,17.46
2022-08-07T22:16:41.851Z,17.29
2022-08-07T22:19:23.873Z,17.25
2022-08-07T22:22:17.733Z,17.24
2022-08-07T22:24:57.817Z,17.23
2022-08-07T22:28:29.704Z,17.07
2022-08-07T22:30:27.154Z,17.06
2022-08-07T22:33:03.668Z,17.00
2022-08-07T22:35:41.311Z,17.03
2022-08-07T22:38:20.591Z,16.99
2022-08-07T22:40:58.179Z,16.90
2022-08-07T22:43:34.361Z,16.95
2022-08-07T22:47:03.069Z,16.87
2022-08-07T22:49:37.677Z,16.88
2022-08-07T22:52:37.684Z,16.86
2022-08-07T22:55:39.240Z,16.69
2022-08-07T22:58:34.156Z,16.60
2022-08-07T23:01:18.962Z,16.58
2022-08-07T23:04:04.266Z,16.58
2022-08-07T23:06:52.067Z,16.52
2022-08-07T23:10:04.786Z,16.44
2022-08-07T23:12:45.014Z,16.38
2022-08-07T23:16:06.158Z,16.36
2022-08-07T23:18:27.411Z,16.38
2022-08-07T23:21:09.436Z,16.23
2022-08-07T23:24:05.856Z,16.13
2022-08-07T23:26:57.852Z,16.05
2022-08-07T23:30:38.709Z,15.91
2022-08-07T23:34:36.244Z,15.85
2022-08-07T23:36:22.982Z,15.88
2022-08-07T23:39:04.828Z,15.88
2022-08-07T23:42:04.337Z,15.98
2022-08-07T23:45:02.632Z,15.93
2022-08-07T23:47:47.867Z,15.83
2022-08-07T23:50:34.390Z,15.85
2022-08-07T23:53:17.094Z,15.65
2022-08-07T23:55:55.758Z,15.77
2022-08-07T23:58:30.677Z,15.76
